sensor_id;sensor_type;location;lat;lon;timestamp;temperature;humidity
33414;DHT22;60055;41.884;12.534;2023-02-28T00:01:15;9.60;99.90
33414;DHT22;60055;41.884;12.534;2023-02-28T00:03:41;9.60;99.90
33414;DHT22;60055;41.884;12.534;2023-02-28T00:06:07;9.70;99.90
33414;DHT22;60055;41.884;12.534;2023-02-28T00:08:38;9.70;99.90
33414;DHT22;60055;41.884;12.534;2023-02-28T00:11:06;9.60;99.90
33414;DHT22;60055;41.884;12.534;2023-02-28T00:13:35;9.60;99.90
33414;DHT22;60055;41.884;12.534;2023-02-28T00:16:07;9.60;99.90
33414;DHT22;60055;41.884;12.534;2023-02-28T00:18:33;9.60;99.90
33414;DHT22;60055;41.884;12.534;2023-02-28T00:20:59;9.60;99.90
33414;DHT22;60055;41.884;12.534;2023-02-28T00:23:26;9.60;99.90
33414;DHT22;60055;41.884;12.534;2023-02-28T00:25:52;9.50;99.90
33414;DHT22;60055;41.884;12.534;2023-02-28T00:28:18;9.50;99.90
33414;DHT22;60055;41.884;12.534;2023-02-28T00:30:44;9.70;99.90
33414;DHT22;60055;41.884;12.534;2023-02-28T00:33:10;9.50;99.90
33414;DHT22;60055;41.884;12.534;2023-02-28T00:35:35;9.50;99.90
33414;DHT22;60055;41.884;12.534;2023-02-28T00:38:01;9.60;99.90
33414;DHT22;60055;41.884;12.534;2023-02-28T00:40:28;9.60;99.90
33414;DHT22;60055;41.884;12.534;2023-02-28T00:42:53;9.50;99.90
33414;DHT22;60055;41.884;12.534;2023-02-28T00:45:19;9.60;99.90
33414;DHT22;60055;41.884;12.534;2023-02-28T00:47:48;9.70;99.90
33414;DHT22;60055;41.884;12.534;2023-02-28T00:50:17;9.60;99.90
33414;DHT22;60055;41.884;12.534;2023-02-28T00:52:43;9.70;99.90
33414;DHT22;60055;41.884;12.534;2023-02-28T00:55:09;9.60;99.90
33414;DHT22;60055;41.884;12.534;2023-02-28T00:57:35;9.70;99.90
33414;DHT22;60055;41.884;12.534;2023-02-28T01:00:00;9.70;99.90
33414;DHT22;60055;41.884;12.534;2023-02-28T01:02:26;9.60;99.90
33414;DHT22;60055;41.884;12.534;2023-02-28T01:04:52;9.50;99.90
33414;DHT22;60055;41.884;12.534;2023-02-28T01:07:22;9.50;99.90
33414;DHT22;60055;41.884;12.534;2023-02-28T01:09:47;9.30;99.90
33414;DHT22;60055;41.884;12.534;2023-02-28T01:12:13;9.40;99.90
33414;DHT22;60055;41.884;12.534;2023-02-28T01:14:38;9.50;99.90
33414;DHT22;60055;41.884;12.534;2023-02-28T01:17:05;9.50;99.90
33414;DHT22;60055;41.884;12.534;2023-02-28T01:19:31;9.50;99.90
33414;DHT22;60055;41.884;12.534;2023-02-28T01:21:56;9.50;99.90
33414;DHT22;60055;41.884;12.534;2023-02-28T01:24:22;9.50;99.90
33414;DHT22;60055;41.884;12.534;2023-02-28T01:26:48;9.30;99.90
33414;DHT22;60055;41.884;12.534;2023-02-28T01:29:16;9.20;99.90
33414;DHT22;60055;41.884;12.534;2023-02-28T01:31:42;9.20;99.90
33414;DHT22;60055;41.884;12.534;2023-02-28T01:34:07;9.10;99.90
33414;DHT22;60055;41.884;12.534;2023-02-28T01:36:33;9.30;99.90
33414;DHT22;60055;41.884;12.534;2023-02-28T01:38:58;9.40;99.90
33414;DHT22;60055;41.884;12.534;2023-02-28T01:41:30;9.40;99.90
33414;DHT22;60055;41.884;12.534;2023-02-28T01:44:53;9.30;99.90
33414;DHT22;60055;41.884;12.534;2023-02-28T01:46:52;9.40;99.90
33414;DHT22;60055;41.884;12.534;2023-02-28T01:49:18;9.30;99.90
33414;DHT22;60055;41.884;12.534;2023-02-28T01:51:52;9.30;99.90
33414;DHT22;60055;41.884;12.534;2023-02-28T01:54:27;9.40;99.90
33414;DHT22;60055;41.884;12.534;2023-02-28T01:57:10;9.40;99.90
33414;DHT22;60055;41.884;12.534;2023-02-28T01:59:42;9.40;99.90
33414;DHT22;60055;41.884;12.534;2023-02-28T02:02:13;9.30;99.90
33414;DHT22;60055;41.884;12.534;2023-02-28T02:04:53;9.30;99.90
33414;DHT22;60055;41.884;12.534;2023-02-28T02:07:21;9.20;99.90
33414;DHT22;60055;41.884;12.534;2023-02-28T02:09:46;9.10;99.90
33414;DHT22;60055;41.884;12.534;2023-02-28T02:12:27;9.10;99.90
33414;DHT22;60055;41.884;12.534;2023-02-28T02:15:15;9.30;99.90
33414;DHT22;60055;41.884;12.534;2023-02-28T02:17:49;9.10;99.90
33414;DHT22;60055;41.884;12.534;2023-02-28T02:26:09;9.10;99.90
33414;DHT22;60055;41.884;12.534;2023-02-28T02:40:14;9.10;99.90
33414;DHT22;60055;41.884;12.534;2023-02-28T02:45:33;9.30;99.90
33414;DHT22;60055;41.884;12.534;2023-02-28T02:48:03;9.30;99.90
33414;DHT22;60055;41.884;12.534;2023-02-28T02:50:35;9.30;99.90
33414;DHT22;60055;41.884;12.534;2023-02-28T02:53:03;9.30;99.90
33414;DHT22;60055;41.884;12.534;2023-02-28T02:55:32;9.30;99.90
33414;DHT22;60055;41.884;12.534;2023-02-28T02:58:02;9.30;99.90
33414;DHT22;60055;41.884;12.534;2023-02-28T03:00:32;9.20;99.90
33414;DHT22;60055;41.884;12.534;2023-02-28T03:03:01;9.20;99.90
33414;DHT22;60055;41.884;12.534;2023-02-28T03:05:48;9.20;99.90
33414;DHT22;60055;41.884;12.534;2023-02-28T03:08:14;9.10;99.90
33414;DHT22;60055;41.884;12.534;2023-02-28T03:10:45;9.10;99.90
33414;DHT22;60055;41.884;12.534;2023-02-28T03:18:58;9.10;99.90
33414;DHT22;60055;41.884;12.534;2023-02-28T03:25:04;9.00;99.90
33414;DHT22;60055;41.884;12.534;2023-02-28T03:27:49;8.80;99.90
33414;DHT22;60055;41.884;12.534;2023-02-28T03:33:41;8.80;99.90
33414;DHT22;60055;41.884;12.534;2023-02-28T03:36:17;8.70;99.90
33414;DHT22;60055;41.884;12.534;2023-02-28T03:39:06;8.80;99.90
33414;DHT22;60055;41.884;12.534;2023-02-28T03:41:44;8.80;99.90
33414;DHT22;60055;41.884;12.534;2023-02-28T03:47:31;8.70;99.90
33414;DHT22;60055;41.884;12.534;2023-02-28T03:49:50;8.80;99.90
33414;DHT22;60055;41.884;12.534;2023-02-28T03:52:19;8.90;99.90
33414;DHT22;60055;41.884;12.534;2023-02-28T03:54:51;8.90;99.90
33414;DHT22;60055;41.884;12.534;2023-02-28T03:57:40;8.90;99.90
33414;DHT22;60055;41.884;12.534;2023-02-28T04:00:14;8.80;99.90
33414;DHT22;60055;41.884;12.534;2023-02-28T04:02:45;8.80;99.90
33414;DHT22;60055;41.884;12.534;2023-02-28T04:05:11;8.90;99.90
33414;DHT22;60055;41.884;12.534;2023-02-28T04:07:40;8.90;99.90
33414;DHT22;60055;41.884;12.534;2023-02-28T04:10:06;8.90;99.90
33414;DHT22;60055;41.884;12.534;2023-02-28T04:12:32;8.70;99.90
33414;DHT22;60055;41.884;12.534;2023-02-28T04:14:58;8.80;99.90
33414;DHT22;60055;41.884;12.534;2023-02-28T04:17:23;9.00;99.90
33414;DHT22;60055;41.884;12.534;2023-02-28T04:19:49;9.00;99.90
33414;DHT22;60055;41.884;12.534;2023-02-28T04:22:15;8.90;99.90
33414;DHT22;60055;41.884;12.534;2023-02-28T04:24:42;9.00;99.90
33414;DHT22;60055;41.884;12.534;2023-02-28T04:27:08;9.00;99.90
33414;DHT22;60055;41.884;12.534;2023-02-28T04:29:34;9.00;99.90
33414;DHT22;60055;41.884;12.534;2023-02-28T04:32:01;9.00;99.90
33414;DHT22;60055;41.884;12.534;2023-02-28T04:34:28;9.00;99.90
33414;DHT22;60055;41.884;12.534;2023-02-28T04:36:55;9.00;99.90
33414;DHT22;60055;41.884;12.534;2023-02-28T04:39:22;9.00;99.90
33414;DHT22;60055;41.884;12.534;2023-02-28T04:41:48;8.90;99.90
33414;DHT22;60055;41.884;12.534;2023-02-28T04:44:14;9.00;99.90
33414;DHT22;60055;41.884;12.534;2023-02-28T04:46:43;9.00;99.90
33414;DHT22;60055;41.884;12.534;2023-02-28T04:49:12;8.90;99.90
33414;DHT22;60055;41.884;12.534;2023-02-28T04:51:38;8.90;99.90
33414;DHT22;60055;41.884;12.534;2023-02-28T04:54:04;9.00;99.90
33414;DHT22;60055;41.884;12.534;2023-02-28T04:56:30;8.90;99.90
33414;DHT22;60055;41.884;12.534;2023-02-28T04:58:58;8.90;99.90
33414;DHT22;60055;41.884;12.534;2023-02-28T05:01:27;9.00;99.90
33414;DHT22;60055;41.884;12.534;2023-02-28T05:03:55;8.80;99.90
33414;DHT22;60055;41.884;12.534;2023-02-28T05:06:22;8.90;99.90
33414;DHT22;60055;41.884;12.534;2023-02-28T05:08:50;8.90;99.90
33414;DHT22;60055;41.884;12.534;2023-02-28T05:11:20;8.90;99.90
33414;DHT22;60055;41.884;12.534;2023-02-28T05:13:48;8.90;99.90
33414;DHT22;60055;41.884;12.534;2023-02-28T05:16:15;8.80;99.90
33414;DHT22;60055;41.884;12.534;2023-02-28T05:18:42;8.90;99.90
33414;DHT22;60055;41.884;12.534;2023-02-28T05:23:49;8.90;99.90
33414;DHT22;60055;41.884;12.534;2023-02-28T05:26:15;8.90;99.90
33414;DHT22;60055;41.884;12.534;2023-02-28T05:28:41;8.70;99.90
33414;DHT22;60055;41.884;12.534;2023-02-28T05:31:10;8.80;99.90
33414;DHT22;60055;41.884;12.534;2023-02-28T05:33:36;8.80;99.90
33414;DHT22;60055;41.884;12.534;2023-02-28T05:36:01;8.80;99.90
33414;DHT22;60055;41.884;12.534;2023-02-28T05:38:27;8.80;99.90
33414;DHT22;60055;41.884;12.534;2023-02-28T05:40:53;8.70;99.90
33414;DHT22;60055;41.884;12.534;2023-02-28T05:43:19;8.70;99.90
33414;DHT22;60055;41.884;12.534;2023-02-28T05:45:44;8.70;99.90
33414;DHT22;60055;41.884;12.534;2023-02-28T05:48:10;8.70;99.90
33414;DHT22;60055;41.884;12.534;2023-02-28T05:50:35;8.50;99.90
33414;DHT22;60055;41.884;12.534;2023-02-28T05:53:01;8.70;99.90
33414;DHT22;60055;41.884;12.534;2023-02-28T05:55:27;8.80;99.90
33414;DHT22;60055;41.884;12.534;2023-02-28T05:57:53;8.80;99.90
33414;DHT22;60055;41.884;12.534;2023-02-28T06:00:19;8.90;99.90
33414;DHT22;60055;41.884;12.534;2023-02-28T06:02:45;8.80;99.90
33414;DHT22;60055;41.884;12.534;2023-02-28T06:05:14;8.80;99.90
33414;DHT22;60055;41.884;12.534;2023-02-28T06:07:40;8.80;99.90
33414;DHT22;60055;41.884;12.534;2023-02-28T06:10:06;8.70;99.90
33414;DHT22;60055;41.884;12.534;2023-02-28T06:12:32;8.70;99.90
33414;DHT22;60055;41.884;12.534;2023-02-28T06:14:57;8.70;99.90
33414;DHT22;60055;41.884;12.534;2023-02-28T06:17:23;8.80;99.90
33414;DHT22;60055;41.884;12.534;2023-02-28T06:19:48;8.90;99.90
33414;DHT22;60055;41.884;12.534;2023-02-28T06:22:16;8.80;99.90
33414;DHT22;60055;41.884;12.534;2023-02-28T06:24:42;8.90;99.90
33414;DHT22;60055;41.884;12.534;2023-02-28T06:27:08;8.90;99.90
33414;DHT22;60055;41.884;12.534;2023-02-28T06:29:35;8.90;99.90
33414;DHT22;60055;41.884;12.534;2023-02-28T06:32:00;8.90;99.90
33414;DHT22;60055;41.884;12.534;2023-02-28T06:34:26;9.00;99.90
33414;DHT22;60055;41.884;12.534;2023-02-28T06:36:52;8.90;99.90
33414;DHT22;60055;41.884;12.534;2023-02-28T06:39:18;8.90;99.90
33414;DHT22;60055;41.884;12.534;2023-02-28T06:41:46;8.90;99.90
33414;DHT22;60055;41.884;12.534;2023-02-28T06:44:17;8.90;99.90
33414;DHT22;60055;41.884;12.534;2023-02-28T06:46:44;9.00;99.90
33414;DHT22;60055;41.884;12.534;2023-02-28T06:49:11;9.00;99.90
33414;DHT22;60055;41.884;12.534;2023-02-28T06:51:39;9.00;99.90
33414;DHT22;60055;41.884;12.534;2023-02-28T06:54:05;9.00;99.90
33414;DHT22;60055;41.884;12.534;2023-02-28T06:56:34;9.00;99.90
33414;DHT22;60055;41.884;12.534;2023-02-28T06:59:00;9.00;99.90
33414;DHT22;60055;41.884;12.534;2023-02-28T07:01:26;9.10;99.90
33414;DHT22;60055;41.884;12.534;2023-02-28T07:03:53;9.10;99.90
33414;DHT22;60055;41.884;12.534;2023-02-28T07:06:23;9.10;99.90
33414;DHT22;60055;41.884;12.534;2023-02-28T07:08:50;9.20;99.90
33414;DHT22;60055;41.884;12.534;2023-02-28T07:11:17;9.30;99.90
33414;DHT22;60055;41.884;12.534;2023-02-28T07:13:43;9.20;99.90
33414;DHT22;60055;41.884;12.534;2023-02-28T07:16:10;9.90;99.90
33414;DHT22;60055;41.884;12.534;2023-02-28T07:18:37;10.10;99.90
33414;DHT22;60055;41.884;12.534;2023-02-28T07:21:07;10.50;99.90
33414;DHT22;60055;41.884;12.534;2023-02-28T07:23:34;10.60;99.90
33414;DHT22;60055;41.884;12.534;2023-02-28T07:25:59;10.60;99.90
33414;DHT22;60055;41.884;12.534;2023-02-28T07:28:25;11.00;99.90
33414;DHT22;60055;41.884;12.534;2023-02-28T07:30:51;10.90;99.90
33414;DHT22;60055;41.884;12.534;2023-02-28T07:33:17;10.60;99.90
33414;DHT22;60055;41.884;12.534;2023-02-28T07:35:45;10.50;99.90
33414;DHT22;60055;41.884;12.534;2023-02-28T07:38:11;10.50;99.90
33414;DHT22;60055;41.884;12.534;2023-02-28T07:40:39;10.80;99.90
33414;DHT22;60055;41.884;12.534;2023-02-28T07:43:04;10.90;99.90
33414;DHT22;60055;41.884;12.534;2023-02-28T07:45:30;10.80;99.90
33414;DHT22;60055;41.884;12.534;2023-02-28T07:47:58;10.90;99.90
33414;DHT22;60055;41.884;12.534;2023-02-28T07:50:23;11.20;99.90
33414;DHT22;60055;41.884;12.534;2023-02-28T07:52:49;11.00;99.90
33414;DHT22;60055;41.884;12.534;2023-02-28T07:55:15;11.20;99.90
33414;DHT22;60055;41.884;12.534;2023-02-28T07:57:42;10.80;99.90
33414;DHT22;60055;41.884;12.534;2023-02-28T08:00:09;10.70;99.90
33414;DHT22;60055;41.884;12.534;2023-02-28T08:02:36;10.90;99.90
33414;DHT22;60055;41.884;12.534;2023-02-28T08:05:05;10.80;99.90
33414;DHT22;60055;41.884;12.534;2023-02-28T08:07:31;10.90;99.90
33414;DHT22;60055;41.884;12.534;2023-02-28T08:10:00;11.20;99.90
33414;DHT22;60055;41.884;12.534;2023-02-28T08:12:26;11.10;99.90
33414;DHT22;60055;41.884;12.534;2023-02-28T08:14:51;11.10;99.90
33414;DHT22;60055;41.884;12.534;2023-02-28T08:17:17;11.10;99.90
33414;DHT22;60055;41.884;12.534;2023-02-28T08:19:45;11.20;99.90
33414;DHT22;60055;41.884;12.534;2023-02-28T08:22:13;11.20;99.90
33414;DHT22;60055;41.884;12.534;2023-02-28T08:24:41;11.50;99.90
33414;DHT22;60055;41.884;12.534;2023-02-28T08:27:08;11.70;99.90
33414;DHT22;60055;41.884;12.534;2023-02-28T08:29:34;12.30;99.90
33414;DHT22;60055;41.884;12.534;2023-02-28T08:32:01;12.00;99.90
33414;DHT22;60055;41.884;12.534;2023-02-28T08:34:27;12.30;99.90
33414;DHT22;60055;41.884;12.534;2023-02-28T08:36:53;12.10;99.90
33414;DHT22;60055;41.884;12.534;2023-02-28T08:39:18;12.00;99.90
33414;DHT22;60055;41.884;12.534;2023-02-28T08:41:45;12.20;99.90
33414;DHT22;60055;41.884;12.534;2023-02-28T08:44:11;12.60;99.90
33414;DHT22;60055;41.884;12.534;2023-02-28T08:46:37;12.30;99.90
33414;DHT22;60055;41.884;12.534;2023-02-28T08:49:03;12.40;99.90
33414;DHT22;60055;41.884;12.534;2023-02-28T08:51:29;12.30;99.90
33414;DHT22;60055;41.884;12.534;2023-02-28T08:53:58;12.40;99.90
33414;DHT22;60055;41.884;12.534;2023-02-28T08:56:25;12.30;99.90
33414;DHT22;60055;41.884;12.534;2023-02-28T08:58:51;12.30;99.90
33414;DHT22;60055;41.884;12.534;2023-02-28T09:01:19;12.50;99.90
33414;DHT22;60055;41.884;12.534;2023-02-28T09:03:47;12.70;99.90
33414;DHT22;60055;41.884;12.534;2023-02-28T09:06:14;12.60;99.90
33414;DHT22;60055;41.884;12.534;2023-02-28T09:08:41;12.60;99.90
33414;DHT22;60055;41.884;12.534;2023-02-28T09:11:07;12.70;99.90
33414;DHT22;60055;41.884;12.534;2023-02-28T09:13:33;12.70;99.90
33414;DHT22;60055;41.884;12.534;2023-02-28T09:16:01;12.80;99.90
33414;DHT22;60055;41.884;12.534;2023-02-28T09:18:30;13.20;99.90
33414;DHT22;60055;41.884;12.534;2023-02-28T09:20:56;13.10;99.90
33414;DHT22;60055;41.884;12.534;2023-02-28T09:23:23;13.10;99.90
33414;DHT22;60055;41.884;12.534;2023-02-28T09:25:54;13.20;99.90
33414;DHT22;60055;41.884;12.534;2023-02-28T09:28:21;13.20;99.90
33414;DHT22;60055;41.884;12.534;2023-02-28T09:30:51;13.30;99.90
33414;DHT22;60055;41.884;12.534;2023-02-28T09:33:18;13.20;99.90
33414;DHT22;60055;41.884;12.534;2023-02-28T09:35:46;13.50;99.90
33414;DHT22;60055;41.884;12.534;2023-02-28T09:38:12;13.40;99.90
33414;DHT22;60055;41.884;12.534;2023-02-28T09:41:00;13.50;99.90
33414;DHT22;60055;41.884;12.534;2023-02-28T09:43:29;13.60;99.90
33414;DHT22;60055;41.884;12.534;2023-02-28T09:48:45;13.90;99.90
33414;DHT22;60055;41.884;12.534;2023-02-28T09:51:43;14.20;99.90
33414;DHT22;60055;41.884;12.534;2023-02-28T09:54:14;14.50;99.90
33414;DHT22;60055;41.884;12.534;2023-02-28T09:56:50;14.70;99.90
33414;DHT22;60055;41.884;12.534;2023-02-28T10:02:47;14.50;99.90
33414;DHT22;60055;41.884;12.534;2023-02-28T10:05:26;14.30;99.90
33414;DHT22;60055;41.884;12.534;2023-02-28T10:08:04;14.20;99.90
33414;DHT22;60055;41.884;12.534;2023-02-28T10:10:45;14.10;99.90
33414;DHT22;60055;41.884;12.534;2023-02-28T10:13:41;14.10;99.90
33414;DHT22;60055;41.884;12.534;2023-02-28T10:16:27;14.10;99.90
33414;DHT22;60055;41.884;12.534;2023-02-28T10:24:58;14.10;99.90
33414;DHT22;60055;41.884;12.534;2023-02-28T10:27:30;14.00;99.90
33414;DHT22;60055;41.884;12.534;2023-02-28T10:30:01;13.90;99.90
33414;DHT22;60055;41.884;12.534;2023-02-28T10:32:30;14.00;99.90
33414;DHT22;60055;41.884;12.534;2023-02-28T10:37:41;14.00;99.90
33414;DHT22;60055;41.884;12.534;2023-02-28T10:43:04;14.00;99.90
33414;DHT22;60055;41.884;12.534;2023-02-28T10:45:32;14.10;99.90
33414;DHT22;60055;41.884;12.534;2023-02-28T10:48:10;14.10;99.90
33414;DHT22;60055;41.884;12.534;2023-02-28T11:01:43;14.20;99.90
33414;DHT22;60055;41.884;12.534;2023-02-28T11:07:16;14.00;99.90
33414;DHT22;60055;41.884;12.534;2023-02-28T11:09:46;14.00;99.90
33414;DHT22;60055;41.884;12.534;2023-02-28T11:12:27;14.10;99.90
33414;DHT22;60055;41.884;12.534;2023-02-28T11:15:03;14.10;99.90
33414;DHT22;60055;41.884;12.534;2023-02-28T11:17:31;14.20;99.90
33414;DHT22;60055;41.884;12.534;2023-02-28T11:20:20;14.20;99.90
33414;DHT22;60055;41.884;12.534;2023-02-28T11:22:47;14.30;99.90
33414;DHT22;60055;41.884;12.534;2023-02-28T11:25:28;14.40;99.90
33414;DHT22;60055;41.884;12.534;2023-02-28T11:28:01;14.50;99.90
33414;DHT22;60055;41.884;12.534;2023-02-28T11:30:59;14.50;99.90
33414;DHT22;60055;41.884;12.534;2023-02-28T11:33:40;14.60;99.90
33414;DHT22;60055;41.884;12.534;2023-02-28T11:36:13;14.60;99.90
33414;DHT22;60055;41.884;12.534;2023-02-28T11:38:40;14.60;99.90
33414;DHT22;60055;41.884;12.534;2023-02-28T11:43:55;14.70;99.90
33414;DHT22;60055;41.884;12.534;2023-02-28T11:52:01;14.80;99.90
33414;DHT22;60055;41.884;12.534;2023-02-28T12:00:17;14.70;99.90
33414;DHT22;60055;41.884;12.534;2023-02-28T12:05:46;14.90;99.90
33414;DHT22;60055;41.884;12.534;2023-02-28T12:10:51;15.20;99.90
33414;DHT22;60055;41.884;12.534;2023-02-28T12:18:47;15.20;99.90
33414;DHT22;60055;41.884;12.534;2023-02-28T12:23:54;15.10;99.90
33414;DHT22;60055;41.884;12.534;2023-02-28T12:26:34;15.10;99.90
33414;DHT22;60055;41.884;12.534;2023-02-28T12:34:22;15.10;99.90
33414;DHT22;60055;41.884;12.534;2023-02-28T12:36:51;15.00;99.90
33414;DHT22;60055;41.884;12.534;2023-02-28T12:39:26;14.90;99.90
33414;DHT22;60055;41.884;12.534;2023-02-28T12:41:59;14.90;99.90
33414;DHT22;60055;41.884;12.534;2023-02-28T12:44:30;14.80;99.90
33414;DHT22;60055;41.884;12.534;2023-02-28T12:47:00;14.70;99.90
33414;DHT22;60055;41.884;12.534;2023-02-28T12:49:39;14.70;99.90
33414;DHT22;60055;41.884;12.534;2023-02-28T12:52:06;14.60;99.90
33414;DHT22;60055;41.884;12.534;2023-02-28T12:55:14;14.60;99.90
33414;DHT22;60055;41.884;12.534;2023-02-28T12:57:41;14.60;99.90
33414;DHT22;60055;41.884;12.534;2023-02-28T13:00:17;14.50;99.90
33414;DHT22;60055;41.884;12.534;2023-02-28T13:02:56;14.50;99.90
33414;DHT22;60055;41.884;12.534;2023-02-28T13:06:10;14.40;99.90
33414;DHT22;60055;41.884;12.534;2023-02-28T13:11:06;14.30;99.90
33414;DHT22;60055;41.884;12.534;2023-02-28T13:13:32;14.30;99.90
33414;DHT22;60055;41.884;12.534;2023-02-28T13:16:08;14.30;99.90
33414;DHT22;60055;41.884;12.534;2023-02-28T13:18:38;14.30;99.90
33414;DHT22;60055;41.884;12.534;2023-02-28T13:21:07;14.30;99.90
33414;DHT22;60055;41.884;12.534;2023-02-28T13:24:00;14.30;99.90
33414;DHT22;60055;41.884;12.534;2023-02-28T13:34:49;14.20;99.90
33414;DHT22;60055;41.884;12.534;2023-02-28T13:37:36;14.30;99.90
33414;DHT22;60055;41.884;12.534;2023-02-28T13:40:28;14.30;99.90
33414;DHT22;60055;41.884;12.534;2023-02-28T13:42:54;14.20;99.90
33414;DHT22;60055;41.884;12.534;2023-02-28T13:45:26;14.30;99.90
33414;DHT22;60055;41.884;12.534;2023-02-28T13:48:01;14.30;99.90
33414;DHT22;60055;41.884;12.534;2023-02-28T13:50:36;14.30;99.90
33414;DHT22;60055;41.884;12.534;2023-02-28T13:53:39;14.30;99.90
33414;DHT22;60055;41.884;12.534;2023-02-28T14:05:01;14.40;99.90
33414;DHT22;60055;41.884;12.534;2023-02-28T14:07:41;14.50;99.90
33414;DHT22;60055;41.884;12.534;2023-02-28T14:10:28;14.60;99.90
33414;DHT22;60055;41.884;12.534;2023-02-28T14:18:21;14.70;99.90
33414;DHT22;60055;41.884;12.534;2023-02-28T14:20:49;14.90;99.90
33414;DHT22;60055;41.884;12.534;2023-02-28T14:23:42;15.00;99.90
33414;DHT22;60055;41.884;12.534;2023-02-28T14:28:57;15.00;99.90
33414;DHT22;60055;41.884;12.534;2023-02-28T14:31:35;15.00;99.90
33414;DHT22;60055;41.884;12.534;2023-02-28T14:34:54;15.00;99.90
33414;DHT22;60055;41.884;12.534;2023-02-28T14:37:02;14.90;99.90
33414;DHT22;60055;41.884;12.534;2023-02-28T14:39:29;14.90;99.90
33414;DHT22;60055;41.884;12.534;2023-02-28T14:41:56;14.80;99.90
33414;DHT22;60055;41.884;12.534;2023-02-28T14:44:28;14.80;99.90
33414;DHT22;60055;41.884;12.534;2023-02-28T14:49:30;14.80;99.90
33414;DHT22;60055;41.884;12.534;2023-02-28T14:54:53;14.70;99.90
33414;DHT22;60055;41.884;12.534;2023-02-28T14:57:22;14.70;99.90
33414;DHT22;60055;41.884;12.534;2023-02-28T15:00:21;14.70;99.90
33414;DHT22;60055;41.884;12.534;2023-02-28T15:02:43;14.60;99.90
33414;DHT22;60055;41.884;12.534;2023-02-28T15:07:38;14.60;99.90
33414;DHT22;60055;41.884;12.534;2023-02-28T15:12:35;14.50;99.90
33414;DHT22;60055;41.884;12.534;2023-02-28T15:15:01;14.40;99.90
33414;DHT22;60055;41.884;12.534;2023-02-28T15:17:27;14.40;99.90
33414;DHT22;60055;41.884;12.534;2023-02-28T15:19:54;14.30;99.90
33414;DHT22;60055;41.884;12.534;2023-02-28T15:22:31;14.30;99.90
33414;DHT22;60055;41.884;12.534;2023-02-28T15:24:59;14.30;99.90
33414;DHT22;60055;41.884;12.534;2023-02-28T15:27:28;14.20;99.90
33414;DHT22;60055;41.884;12.534;2023-02-28T15:29:59;14.20;99.90
33414;DHT22;60055;41.884;12.534;2023-02-28T15:32:35;14.00;99.90
33414;DHT22;60055;41.884;12.534;2023-02-28T15:38:02;13.90;99.90
33414;DHT22;60055;41.884;12.534;2023-02-28T15:40:36;13.80;99.90
33414;DHT22;60055;41.884;12.534;2023-02-28T15:43:05;13.70;99.90
33414;DHT22;60055;41.884;12.534;2023-02-28T15:48:23;13.50;99.90
33414;DHT22;60055;41.884;12.534;2023-02-28T15:50:56;13.40;99.90
33414;DHT22;60055;41.884;12.534;2023-02-28T15:53:25;13.30;99.90
33414;DHT22;60055;41.884;12.534;2023-02-28T15:56:22;13.20;99.90
33414;DHT22;60055;41.884;12.534;2023-02-28T15:58:46;13.20;99.90
33414;DHT22;60055;41.884;12.534;2023-02-28T16:01:27;13.20;99.90
33414;DHT22;60055;41.884;12.534;2023-02-28T16:03:57;13.10;99.90
33414;DHT22;60055;41.884;12.534;2023-02-28T16:08:48;13.00;99.90
33414;DHT22;60055;41.884;12.534;2023-02-28T16:11:17;12.80;99.90
33414;DHT22;60055;41.884;12.534;2023-02-28T16:13:43;12.80;99.90
33414;DHT22;60055;41.884;12.534;2023-02-28T16:16:17;12.70;99.90
33414;DHT22;60055;41.884;12.534;2023-02-28T16:18:43;12.70;99.90
33414;DHT22;60055;41.884;12.534;2023-02-28T16:21:09;12.70;99.90
33414;DHT22;60055;41.884;12.534;2023-02-28T16:23:34;12.70;99.90
33414;DHT22;60055;41.884;12.534;2023-02-28T16:26:00;12.60;99.90
33414;DHT22;60055;41.884;12.534;2023-02-28T16:28:31;12.50;99.90
33414;DHT22;60055;41.884;12.534;2023-02-28T16:30:59;12.60;99.90
33414;DHT22;60055;41.884;12.534;2023-02-28T16:33:25;12.60;99.90
33414;DHT22;60055;41.884;12.534;2023-02-28T16:35:50;12.60;99.90
33414;DHT22;60055;41.884;12.534;2023-02-28T16:38:16;12.40;99.90
33414;DHT22;60055;41.884;12.534;2023-02-28T16:40:42;12.30;99.90
33414;DHT22;60055;41.884;12.534;2023-02-28T16:43:17;12.20;99.90
33414;DHT22;60055;41.884;12.534;2023-02-28T16:45:45;12.20;99.90
33414;DHT22;60055;41.884;12.534;2023-02-28T16:48:13;12.10;99.90
33414;DHT22;60055;41.884;12.534;2023-02-28T16:50:39;12.10;99.90
33414;DHT22;60055;41.884;12.534;2023-02-28T16:53:05;12.10;99.90
33414;DHT22;60055;41.884;12.534;2023-02-28T16:55:31;12.10;99.90
33414;DHT22;60055;41.884;12.534;2023-02-28T16:57:58;11.90;99.90
33414;DHT22;60055;41.884;12.534;2023-02-28T17:00:25;12.00;99.90
33414;DHT22;60055;41.884;12.534;2023-02-28T17:02:51;11.90;99.90
33414;DHT22;60055;41.884;12.534;2023-02-28T17:05:17;11.90;99.90
33414;DHT22;60055;41.884;12.534;2023-02-28T17:07:44;12.00;99.90
33414;DHT22;60055;41.884;12.534;2023-02-28T17:10:20;11.90;99.90
33414;DHT22;60055;41.884;12.534;2023-02-28T17:12:46;11.90;99.90
33414;DHT22;60055;41.884;12.534;2023-02-28T17:15:14;11.90;99.90
33414;DHT22;60055;41.884;12.534;2023-02-28T17:17:41;11.80;99.90
33414;DHT22;60055;41.884;12.534;2023-02-28T17:20:21;11.90;99.90
33414;DHT22;60055;41.884;12.534;2023-02-28T17:22:52;11.90;99.90
33414;DHT22;60055;41.884;12.534;2023-02-28T17:25:18;11.80;99.90
33414;DHT22;60055;41.884;12.534;2023-02-28T17:27:44;11.80;99.90
33414;DHT22;60055;41.884;12.534;2023-02-28T17:30:21;11.70;99.90
33414;DHT22;60055;41.884;12.534;2023-02-28T17:32:47;11.70;99.90
33414;DHT22;60055;41.884;12.534;2023-02-28T17:35:13;11.70;99.90
33414;DHT22;60055;41.884;12.534;2023-02-28T17:37:39;11.70;99.90
33414;DHT22;60055;41.884;12.534;2023-02-28T17:40:05;11.80;99.90
33414;DHT22;60055;41.884;12.534;2023-02-28T17:42:31;11.70;99.90
33414;DHT22;60055;41.884;12.534;2023-02-28T17:44:56;11.70;99.90
33414;DHT22;60055;41.884;12.534;2023-02-28T17:47:22;11.70;99.90
33414;DHT22;60055;41.884;12.534;2023-02-28T17:49:48;11.70;99.90
33414;DHT22;60055;41.884;12.534;2023-02-28T17:52:16;11.80;99.90
33414;DHT22;60055;41.884;12.534;2023-02-28T17:54:42;11.70;99.90
33414;DHT22;60055;41.884;12.534;2023-02-28T17:57:13;11.60;99.90
33414;DHT22;60055;41.884;12.534;2023-02-28T17:59:39;11.60;99.90
33414;DHT22;60055;41.884;12.534;2023-02-28T18:02:06;11.60;99.90
33414;DHT22;60055;41.884;12.534;2023-02-28T18:04:32;11.60;99.90
33414;DHT22;60055;41.884;12.534;2023-02-28T18:06:57;11.70;99.90
33414;DHT22;60055;41.884;12.534;2023-02-28T18:09:26;11.60;99.90